Terminal Aerodrome Forecast
Issued by NWS Portland, ME

Current Version | Previous Version | Text Only | Print | Product List | Glossary On
Versions: 1 2 3 4 5 6 7 8 9 10 11 12 13 14 15 16
075 FTUS41 KGYX 301812 AAA TAFPWM TAF AMD KPWM 301812Z 3018/3118 VRB05KT P6SM BKN200 FM301900 16008KT P6SM BKN200 FM310000 36004KT P6SM BKN150=

USA.gov is the U.S. government's official web portal to all federal, state and local government web resources and services.